sensor_id;sensor_type;location;lat;lon;timestamp;temperature;humidity
71837;DHT22;59686;51.716;7.016;2022-12-18T00:01:47;2.20;65.60
71837;DHT22;59686;51.716;7.016;2022-12-18T00:04:24;2.20;65.60
71837;DHT22;59686;51.716;7.016;2022-12-18T00:06:50;2.20;65.40
71837;DHT22;59686;51.716;7.016;2022-12-18T00:09:21;2.20;65.40
71837;DHT22;59686;51.716;7.016;2022-12-18T00:11:47;2.20;65.40
71837;DHT22;59686;51.716;7.016;2022-12-18T00:14:13;2.20;65.40
71837;DHT22;59686;51.716;7.016;2022-12-18T00:16:40;2.20;65.50
71837;DHT22;59686;51.716;7.016;2022-12-18T00:19:10;2.20;65.50
71837;DHT22;59686;51.716;7.016;2022-12-18T00:21:36;2.20;65.50
71837;DHT22;59686;51.716;7.016;2022-12-18T00:24:01;2.20;65.60
71837;DHT22;59686;51.716;7.016;2022-12-18T00:26:32;2.20;65.50
71837;DHT22;59686;51.716;7.016;2022-12-18T00:29:03;2.20;65.60
71837;DHT22;59686;51.716;7.016;2022-12-18T00:31:30;2.20;65.60
71837;DHT22;59686;51.716;7.016;2022-12-18T00:33:56;2.20;65.50
71837;DHT22;59686;51.716;7.016;2022-12-18T00:36:28;2.20;65.50
71837;DHT22;59686;51.716;7.016;2022-12-18T00:38:55;2.20;65.40
71837;DHT22;59686;51.716;7.016;2022-12-18T00:41:50;2.10;65.40
71837;DHT22;59686;51.716;7.016;2022-12-18T00:44:34;2.10;65.30
71837;DHT22;59686;51.716;7.016;2022-12-18T00:47:00;2.10;65.30
71837;DHT22;59686;51.716;7.016;2022-12-18T00:49:25;2.10;65.30
71837;DHT22;59686;51.716;7.016;2022-12-18T00:51:51;2.10;65.30
71837;DHT22;59686;51.716;7.016;2022-12-18T00:54:17;2.10;65.30
71837;DHT22;59686;51.716;7.016;2022-12-18T00:56:43;2.10;65.30
71837;DHT22;59686;51.716;7.016;2022-12-18T00:59:08;2.10;65.30
71837;DHT22;59686;51.716;7.016;2022-12-18T01:01:34;2.10;65.30
71837;DHT22;59686;51.716;7.016;2022-12-18T01:04:01;2.10;65.40
71837;DHT22;59686;51.716;7.016;2022-12-18T01:06:37;2.10;65.30
71837;DHT22;59686;51.716;7.016;2022-12-18T01:09:03;2.10;65.40
71837;DHT22;59686;51.716;7.016;2022-12-18T01:11:29;2.10;65.40
71837;DHT22;59686;51.716;7.016;2022-12-18T01:13:55;2.10;65.30
71837;DHT22;59686;51.716;7.016;2022-12-18T01:16:21;2.10;65.40
71837;DHT22;59686;51.716;7.016;2022-12-18T01:18:47;2.10;65.40
71837;DHT22;59686;51.716;7.016;2022-12-18T01:24:24;2.10;65.40
71837;DHT22;59686;51.716;7.016;2022-12-18T01:26:50;2.00;65.30
71837;DHT22;59686;51.716;7.016;2022-12-18T01:29:16;2.00;65.30
71837;DHT22;59686;51.716;7.016;2022-12-18T01:31:41;2.00;65.30
71837;DHT22;59686;51.716;7.016;2022-12-18T01:34:08;2.00;65.30
71837;DHT22;59686;51.716;7.016;2022-12-18T01:36:36;2.00;65.20
71837;DHT22;59686;51.716;7.016;2022-12-18T01:39:09;2.00;65.10
71837;DHT22;59686;51.716;7.016;2022-12-18T01:41:35;2.00;65.20
71837;DHT22;59686;51.716;7.016;2022-12-18T01:50:08;2.00;65.30
71837;DHT22;59686;51.716;7.016;2022-12-18T01:52:34;2.00;65.30
71837;DHT22;59686;51.716;7.016;2022-12-18T01:55:02;2.00;65.30
71837;DHT22;59686;51.716;7.016;2022-12-18T01:57:29;2.00;65.40
71837;DHT22;59686;51.716;7.016;2022-12-18T02:00:01;2.00;65.30
71837;DHT22;59686;51.716;7.016;2022-12-18T02:02:29;2.00;65.30
71837;DHT22;59686;51.716;7.016;2022-12-18T02:04:55;2.00;65.40
71837;DHT22;59686;51.716;7.016;2022-12-18T02:07:40;2.10;65.40
71837;DHT22;59686;51.716;7.016;2022-12-18T02:10:21;2.00;65.40
71837;DHT22;59686;51.716;7.016;2022-12-18T02:15:32;1.90;65.40
71837;DHT22;59686;51.716;7.016;2022-12-18T02:18:08;1.90;65.40
71837;DHT22;59686;51.716;7.016;2022-12-18T02:20:47;1.90;65.30
71837;DHT22;59686;51.716;7.016;2022-12-18T02:23:39;1.90;65.30
71837;DHT22;59686;51.716;7.016;2022-12-18T02:26:36;1.90;65.30
71837;DHT22;59686;51.716;7.016;2022-12-18T02:29:20;1.90;65.20
71837;DHT22;59686;51.716;7.016;2022-12-18T02:31:52;1.90;65.20
71837;DHT22;59686;51.716;7.016;2022-12-18T02:34:23;1.90;65.30
71837;DHT22;59686;51.716;7.016;2022-12-18T02:36:51;1.90;65.30
71837;DHT22;59686;51.716;7.016;2022-12-18T02:39:19;1.90;65.20
71837;DHT22;59686;51.716;7.016;2022-12-18T02:41:46;1.90;65.20
71837;DHT22;59686;51.716;7.016;2022-12-18T02:44:14;1.90;65.80
71837;DHT22;59686;51.716;7.016;2022-12-18T02:46:45;1.90;65.00
71837;DHT22;59686;51.716;7.016;2022-12-18T03:00:41;1.80;64.90
71837;DHT22;59686;51.716;7.016;2022-12-18T03:03:39;1.80;64.80
71837;DHT22;59686;51.716;7.016;2022-12-18T03:06:32;1.80;64.80
71837;DHT22;59686;51.716;7.016;2022-12-18T03:09:01;1.80;64.80
71837;DHT22;59686;51.716;7.016;2022-12-18T03:11:30;1.80;64.80
71837;DHT22;59686;51.716;7.016;2022-12-18T03:14:17;1.80;64.80
71837;DHT22;59686;51.716;7.016;2022-12-18T03:16:47;1.80;64.80
71837;DHT22;59686;51.716;7.016;2022-12-18T03:19:17;1.80;64.80
71837;DHT22;59686;51.716;7.016;2022-12-18T03:21:54;1.80;64.80
71837;DHT22;59686;51.716;7.016;2022-12-18T03:24:21;1.80;65.60
71837;DHT22;59686;51.716;7.016;2022-12-18T03:26:52;1.80;64.80
71837;DHT22;59686;51.716;7.016;2022-12-18T03:29:31;1.80;64.90
71837;DHT22;59686;51.716;7.016;2022-12-18T03:32:03;1.80;64.90
71837;DHT22;59686;51.716;7.016;2022-12-18T03:34:32;1.80;65.00
71837;DHT22;59686;51.716;7.016;2022-12-18T03:36:59;1.80;65.00
71837;DHT22;59686;51.716;7.016;2022-12-18T03:39:29;1.80;65.00
71837;DHT22;59686;51.716;7.016;2022-12-18T03:42:24;1.70;65.00
71837;DHT22;59686;51.716;7.016;2022-12-18T03:45:19;1.70;65.00
71837;DHT22;59686;51.716;7.016;2022-12-18T03:50:39;1.70;65.10
71837;DHT22;59686;51.716;7.016;2022-12-18T03:53:23;1.70;65.00
71837;DHT22;59686;51.716;7.016;2022-12-18T03:55:54;1.70;65.00
71837;DHT22;59686;51.716;7.016;2022-12-18T03:58:24;1.70;64.90
71837;DHT22;59686;51.716;7.016;2022-12-18T04:00:54;1.70;64.90
71837;DHT22;59686;51.716;7.016;2022-12-18T04:03:21;1.70;64.90
71837;DHT22;59686;51.716;7.016;2022-12-18T04:05:50;1.70;64.80
71837;DHT22;59686;51.716;7.016;2022-12-18T04:08:16;1.70;64.80
71837;DHT22;59686;51.716;7.016;2022-12-18T04:10:42;1.70;64.80
71837;DHT22;59686;51.716;7.016;2022-12-18T04:13:09;1.70;64.80
71837;DHT22;59686;51.716;7.016;2022-12-18T04:15:36;1.70;64.70
71837;DHT22;59686;51.716;7.016;2022-12-18T04:18:02;1.70;64.70
71837;DHT22;59686;51.716;7.016;2022-12-18T04:20:27;1.70;64.60
71837;DHT22;59686;51.716;7.016;2022-12-18T04:22:53;1.60;64.60
71837;DHT22;59686;51.716;7.016;2022-12-18T04:25:19;1.60;64.50
71837;DHT22;59686;51.716;7.016;2022-12-18T04:27:44;1.60;64.50
71837;DHT22;59686;51.716;7.016;2022-12-18T04:30:10;1.60;64.50
71837;DHT22;59686;51.716;7.016;2022-12-18T04:32:36;1.60;64.60
71837;DHT22;59686;51.716;7.016;2022-12-18T04:35:02;1.60;64.70
71837;DHT22;59686;51.716;7.016;2022-12-18T04:37:29;1.60;64.70
71837;DHT22;59686;51.716;7.016;2022-12-18T04:39:55;1.60;64.70
71837;DHT22;59686;51.716;7.016;2022-12-18T04:42:21;1.60;64.80
71837;DHT22;59686;51.716;7.016;2022-12-18T04:44:46;1.60;64.90
71837;DHT22;59686;51.716;7.016;2022-12-18T04:47:12;1.60;64.90
71837;DHT22;59686;51.716;7.016;2022-12-18T04:49:38;1.60;64.90
71837;DHT22;59686;51.716;7.016;2022-12-18T04:52:03;1.60;65.00
71837;DHT22;59686;51.716;7.016;2022-12-18T04:54:29;1.60;65.00
71837;DHT22;59686;51.716;7.016;2022-12-18T04:56:57;1.60;65.00
71837;DHT22;59686;51.716;7.016;2022-12-18T04:59:23;1.60;65.10
71837;DHT22;59686;51.716;7.016;2022-12-18T05:01:49;1.60;65.10
71837;DHT22;59686;51.716;7.016;2022-12-18T05:04:14;1.60;65.00
71837;DHT22;59686;51.716;7.016;2022-12-18T05:06:40;1.60;65.10
71837;DHT22;59686;51.716;7.016;2022-12-18T05:09:06;1.60;65.10
71837;DHT22;59686;51.716;7.016;2022-12-18T05:11:31;1.60;65.20
71837;DHT22;59686;51.716;7.016;2022-12-18T05:13:57;1.60;65.20
71837;DHT22;59686;51.716;7.016;2022-12-18T05:16:22;1.60;65.10
71837;DHT22;59686;51.716;7.016;2022-12-18T05:18:48;1.50;65.10
71837;DHT22;59686;51.716;7.016;2022-12-18T05:21:14;1.60;65.20
71837;DHT22;59686;51.716;7.016;2022-12-18T05:23:39;1.60;65.30
71837;DHT22;59686;51.716;7.016;2022-12-18T05:26:06;1.60;65.20
71837;DHT22;59686;51.716;7.016;2022-12-18T05:28:34;1.60;65.40
71837;DHT22;59686;51.716;7.016;2022-12-18T05:31:02;1.60;65.30
71837;DHT22;59686;51.716;7.016;2022-12-18T05:33:30;1.50;65.20
71837;DHT22;59686;51.716;7.016;2022-12-18T05:35:58;1.50;65.20
71837;DHT22;59686;51.716;7.016;2022-12-18T05:38:26;1.50;65.10
71837;DHT22;59686;51.716;7.016;2022-12-18T05:40:52;1.50;65.10
71837;DHT22;59686;51.716;7.016;2022-12-18T05:43:19;1.50;65.10
71837;DHT22;59686;51.716;7.016;2022-12-18T05:45:47;1.50;65.00
71837;DHT22;59686;51.716;7.016;2022-12-18T05:48:16;1.50;65.00
71837;DHT22;59686;51.716;7.016;2022-12-18T05:50:44;1.50;64.90
71837;DHT22;59686;51.716;7.016;2022-12-18T05:53:14;1.50;64.90
71837;DHT22;59686;51.716;7.016;2022-12-18T05:55:41;1.50;64.80
71837;DHT22;59686;51.716;7.016;2022-12-18T05:58:08;1.50;64.80
71837;DHT22;59686;51.716;7.016;2022-12-18T06:00:39;1.50;64.70
71837;DHT22;59686;51.716;7.016;2022-12-18T06:03:06;1.50;64.70
71837;DHT22;59686;51.716;7.016;2022-12-18T06:05:37;1.40;64.60
71837;DHT22;59686;51.716;7.016;2022-12-18T06:08:03;1.50;64.70
71837;DHT22;59686;51.716;7.016;2022-12-18T06:10:30;1.40;64.70
71837;DHT22;59686;51.716;7.016;2022-12-18T06:12:55;1.50;64.70
71837;DHT22;59686;51.716;7.016;2022-12-18T06:15:27;1.40;64.60
71837;DHT22;59686;51.716;7.016;2022-12-18T06:17:53;1.40;64.60
71837;DHT22;59686;51.716;7.016;2022-12-18T06:20:19;1.40;64.50
71837;DHT22;59686;51.716;7.016;2022-12-18T06:22:44;1.40;64.50
71837;DHT22;59686;51.716;7.016;2022-12-18T06:25:10;1.40;64.60
71837;DHT22;59686;51.716;7.016;2022-12-18T06:27:47;1.40;64.40
71837;DHT22;59686;51.716;7.016;2022-12-18T06:30:13;1.40;64.30
71837;DHT22;59686;51.716;7.016;2022-12-18T06:32:39;1.40;64.40
71837;DHT22;59686;51.716;7.016;2022-12-18T06:35:05;1.40;64.30
71837;DHT22;59686;51.716;7.016;2022-12-18T06:37:31;1.40;64.30
71837;DHT22;59686;51.716;7.016;2022-12-18T06:40:05;1.40;64.30
71837;DHT22;59686;51.716;7.016;2022-12-18T06:42:31;1.30;64.30
71837;DHT22;59686;51.716;7.016;2022-12-18T06:44:57;1.40;64.20
71837;DHT22;59686;51.716;7.016;2022-12-18T06:47:23;1.30;64.10
71837;DHT22;59686;51.716;7.016;2022-12-18T06:49:48;1.40;64.10
71837;DHT22;59686;51.716;7.016;2022-12-18T06:52:16;1.30;64.00
71837;DHT22;59686;51.716;7.016;2022-12-18T06:54:42;1.30;64.00
71837;DHT22;59686;51.716;7.016;2022-12-18T06:57:07;1.30;64.10
71837;DHT22;59686;51.716;7.016;2022-12-18T06:59:33;1.30;64.10
71837;DHT22;59686;51.716;7.016;2022-12-18T07:01:59;1.30;64.10
71837;DHT22;59686;51.716;7.016;2022-12-18T07:04:32;1.30;64.20
71837;DHT22;59686;51.716;7.016;2022-12-18T07:06:57;1.30;64.20
71837;DHT22;59686;51.716;7.016;2022-12-18T07:09:24;1.30;64.20
71837;DHT22;59686;51.716;7.016;2022-12-18T07:11:49;1.30;64.20
71837;DHT22;59686;51.716;7.016;2022-12-18T07:14:15;1.30;64.20
71837;DHT22;59686;51.716;7.016;2022-12-18T07:16:40;1.30;64.20
71837;DHT22;59686;51.716;7.016;2022-12-18T07:19:06;1.30;64.30
71837;DHT22;59686;51.716;7.016;2022-12-18T07:21:32;1.30;64.30
71837;DHT22;59686;51.716;7.016;2022-12-18T07:24:02;1.30;64.40
71837;DHT22;59686;51.716;7.016;2022-12-18T07:26:28;1.30;64.30
71837;DHT22;59686;51.716;7.016;2022-12-18T07:28:56;1.30;64.40
71837;DHT22;59686;51.716;7.016;2022-12-18T07:31:23;1.30;64.40
71837;DHT22;59686;51.716;7.016;2022-12-18T07:33:50;1.30;64.40
71837;DHT22;59686;51.716;7.016;2022-12-18T07:36:16;1.30;64.40
71837;DHT22;59686;51.716;7.016;2022-12-18T07:38:47;1.30;64.40
71837;DHT22;59686;51.716;7.016;2022-12-18T07:41:13;1.30;64.40
71837;DHT22;59686;51.716;7.016;2022-12-18T07:43:41;1.30;64.40
71837;DHT22;59686;51.716;7.016;2022-12-18T07:46:08;1.30;64.40
71837;DHT22;59686;51.716;7.016;2022-12-18T07:48:34;1.30;64.50
71837;DHT22;59686;51.716;7.016;2022-12-18T07:51:00;1.30;64.50
71837;DHT22;59686;51.716;7.016;2022-12-18T07:53:26;1.30;64.50
71837;DHT22;59686;51.716;7.016;2022-12-18T07:56:00;1.30;64.50
71837;DHT22;59686;51.716;7.016;2022-12-18T07:58:28;1.30;64.60
71837;DHT22;59686;51.716;7.016;2022-12-18T08:00:53;1.30;64.60
71837;DHT22;59686;51.716;7.016;2022-12-18T08:03:19;1.30;64.60
71837;DHT22;59686;51.716;7.016;2022-12-18T08:05:45;1.30;65.40
71837;DHT22;59686;51.716;7.016;2022-12-18T08:08:11;1.30;64.70
71837;DHT22;59686;51.716;7.016;2022-12-18T08:10:38;1.30;64.70
71837;DHT22;59686;51.716;7.016;2022-12-18T08:13:04;1.30;64.70
71837;DHT22;59686;51.716;7.016;2022-12-18T08:15:30;1.30;64.70
71837;DHT22;59686;51.716;7.016;2022-12-18T08:17:58;1.30;64.70
71837;DHT22;59686;51.716;7.016;2022-12-18T08:20:24;1.30;64.80
71837;DHT22;59686;51.716;7.016;2022-12-18T08:22:50;1.30;64.80
71837;DHT22;59686;51.716;7.016;2022-12-18T08:25:15;1.40;64.90
71837;DHT22;59686;51.716;7.016;2022-12-18T08:27:41;1.30;64.90
71837;DHT22;59686;51.716;7.016;2022-12-18T08:30:07;1.30;65.00
71837;DHT22;59686;51.716;7.016;2022-12-18T08:32:33;1.30;64.90
71837;DHT22;59686;51.716;7.016;2022-12-18T08:34:59;1.30;65.00
71837;DHT22;59686;51.716;7.016;2022-12-18T08:37:24;1.40;65.20
71837;DHT22;59686;51.716;7.016;2022-12-18T08:39:50;1.30;65.20
71837;DHT22;59686;51.716;7.016;2022-12-18T08:42:16;1.20;65.20
71837;DHT22;59686;51.716;7.016;2022-12-18T08:45:00;1.20;65.20
71837;DHT22;59686;51.716;7.016;2022-12-18T08:47:26;1.30;65.20
71837;DHT22;59686;51.716;7.016;2022-12-18T08:49:52;1.30;65.30
71837;DHT22;59686;51.716;7.016;2022-12-18T08:52:18;1.30;65.30
71837;DHT22;59686;51.716;7.016;2022-12-18T08:54:43;1.30;65.40
71837;DHT22;59686;51.716;7.016;2022-12-18T08:57:09;1.20;65.50
71837;DHT22;59686;51.716;7.016;2022-12-18T08:59:35;1.20;65.50
71837;DHT22;59686;51.716;7.016;2022-12-18T09:02:00;1.30;65.60
71837;DHT22;59686;51.716;7.016;2022-12-18T09:04:26;1.30;65.60
71837;DHT22;59686;51.716;7.016;2022-12-18T09:06:52;1.30;65.60
71837;DHT22;59686;51.716;7.016;2022-12-18T09:09:17;1.30;65.70
71837;DHT22;59686;51.716;7.016;2022-12-18T09:11:43;1.30;65.70
71837;DHT22;59686;51.716;7.016;2022-12-18T09:14:09;1.30;65.80
71837;DHT22;59686;51.716;7.016;2022-12-18T09:16:35;1.30;65.70
71837;DHT22;59686;51.716;7.016;2022-12-18T09:19:09;1.30;65.80
71837;DHT22;59686;51.716;7.016;2022-12-18T09:21:36;1.30;65.90
71837;DHT22;59686;51.716;7.016;2022-12-18T09:24:03;1.30;66.00
71837;DHT22;59686;51.716;7.016;2022-12-18T09:26:29;1.30;66.00
71837;DHT22;59686;51.716;7.016;2022-12-18T09:28:55;1.30;66.00
71837;DHT22;59686;51.716;7.016;2022-12-18T09:31:22;1.30;66.00
71837;DHT22;59686;51.716;7.016;2022-12-18T09:33:49;1.30;66.10
71837;DHT22;59686;51.716;7.016;2022-12-18T09:36:16;1.30;66.10
71837;DHT22;59686;51.716;7.016;2022-12-18T09:38:43;1.30;66.20
71837;DHT22;59686;51.716;7.016;2022-12-18T09:44:29;1.30;66.20
71837;DHT22;59686;51.716;7.016;2022-12-18T09:49:37;1.30;66.30
71837;DHT22;59686;51.716;7.016;2022-12-18T09:52:14;1.30;66.40
71837;DHT22;59686;51.716;7.016;2022-12-18T09:54:42;1.30;66.40
71837;DHT22;59686;51.716;7.016;2022-12-18T09:57:14;1.30;66.50
71837;DHT22;59686;51.716;7.016;2022-12-18T09:59:42;1.30;66.50
71837;DHT22;59686;51.716;7.016;2022-12-18T10:02:23;1.30;66.50
71837;DHT22;59686;51.716;7.016;2022-12-18T10:05:11;1.30;66.90
71837;DHT22;59686;51.716;7.016;2022-12-18T10:07:53;1.40;66.70
71837;DHT22;59686;51.716;7.016;2022-12-18T10:10:39;1.30;66.70
71837;DHT22;59686;51.716;7.016;2022-12-18T10:16:04;1.40;66.80
71837;DHT22;59686;51.716;7.016;2022-12-18T10:19:00;1.30;66.80
71837;DHT22;59686;51.716;7.016;2022-12-18T10:21:37;1.40;66.80
71837;DHT22;59686;51.716;7.016;2022-12-18T10:26:47;1.40;67.00
71837;DHT22;59686;51.716;7.016;2022-12-18T10:29:15;1.40;67.00
71837;DHT22;59686;51.716;7.016;2022-12-18T10:31:41;1.40;67.10
71837;DHT22;59686;51.716;7.016;2022-12-18T10:34:15;1.40;67.10
71837;DHT22;59686;51.716;7.016;2022-12-18T10:36:41;1.40;67.10
71837;DHT22;59686;51.716;7.016;2022-12-18T10:41:44;1.40;67.10
71837;DHT22;59686;51.716;7.016;2022-12-18T10:44:17;1.40;67.20
71837;DHT22;59686;51.716;7.016;2022-12-18T10:46:45;1.40;67.10
71837;DHT22;59686;51.716;7.016;2022-12-18T10:49:27;1.40;67.20
71837;DHT22;59686;51.716;7.016;2022-12-18T10:52:17;1.40;67.30
71837;DHT22;59686;51.716;7.016;2022-12-18T10:55:03;1.40;67.40
71837;DHT22;59686;51.716;7.016;2022-12-18T10:57:37;1.40;67.40
71837;DHT22;59686;51.716;7.016;2022-12-18T11:02:45;1.40;67.50
71837;DHT22;59686;51.716;7.016;2022-12-18T11:05:32;1.40;67.50
71837;DHT22;59686;51.716;7.016;2022-12-18T11:08:02;1.40;67.50
71837;DHT22;59686;51.716;7.016;2022-12-18T11:10:33;1.40;67.60
71837;DHT22;59686;51.716;7.016;2022-12-18T11:13:26;1.40;67.50
71837;DHT22;59686;51.716;7.016;2022-12-18T11:15:53;1.40;67.60
71837;DHT22;59686;51.716;7.016;2022-12-18T11:18:20;1.40;67.60
71837;DHT22;59686;51.716;7.016;2022-12-18T11:20:56;1.40;67.60
71837;DHT22;59686;51.716;7.016;2022-12-18T11:23:28;1.40;67.60
71837;DHT22;59686;51.716;7.016;2022-12-18T11:25:58;1.50;67.70
71837;DHT22;59686;51.716;7.016;2022-12-18T11:28:35;1.40;67.60
71837;DHT22;59686;51.716;7.016;2022-12-18T11:36:40;1.50;67.80
71837;DHT22;59686;51.716;7.016;2022-12-18T11:39:24;1.50;67.90
71837;DHT22;59686;51.716;7.016;2022-12-18T11:42:33;1.50;67.90
71837;DHT22;59686;51.716;7.016;2022-12-18T11:50:30;1.50;68.00
71837;DHT22;59686;51.716;7.016;2022-12-18T11:52:57;1.50;68.20
71837;DHT22;59686;51.716;7.016;2022-12-18T11:55:49;1.50;68.10
71837;DHT22;59686;51.716;7.016;2022-12-18T12:21:14;1.50;68.20
71837;DHT22;59686;51.716;7.016;2022-12-18T12:26:33;1.60;68.40
71837;DHT22;59686;51.716;7.016;2022-12-18T12:40:18;1.60;68.30
71837;DHT22;59686;51.716;7.016;2022-12-18T12:42:47;1.60;68.40
71837;DHT22;59686;51.716;7.016;2022-12-18T12:45:36;1.70;68.60
71837;DHT22;59686;51.716;7.016;2022-12-18T12:48:13;1.60;68.60
71837;DHT22;59686;51.716;7.016;2022-12-18T12:50:41;1.60;68.60
71837;DHT22;59686;51.716;7.016;2022-12-18T12:53:09;1.60;68.70
71837;DHT22;59686;51.716;7.016;2022-12-18T12:55:41;1.60;68.70
71837;DHT22;59686;51.716;7.016;2022-12-18T13:01:34;1.70;68.70
71837;DHT22;59686;51.716;7.016;2022-12-18T13:18:21;1.60;68.90
71837;DHT22;59686;51.716;7.016;2022-12-18T13:25:48;1.70;69.10
71837;DHT22;59686;51.716;7.016;2022-12-18T13:30:50;1.70;69.20
71837;DHT22;59686;51.716;7.016;2022-12-18T13:38:40;1.70;69.30
71837;DHT22;59686;51.716;7.016;2022-12-18T13:43:45;1.70;69.30
71837;DHT22;59686;51.716;7.016;2022-12-18T13:51:45;1.70;69.30
71837;DHT22;59686;51.716;7.016;2022-12-18T13:54:37;1.70;69.40
71837;DHT22;59686;51.716;7.016;2022-12-18T13:57:23;1.70;69.50
71837;DHT22;59686;51.716;7.016;2022-12-18T14:02:45;1.70;69.50
71837;DHT22;59686;51.716;7.016;2022-12-18T14:05:25;1.90;69.70
71837;DHT22;59686;51.716;7.016;2022-12-18T14:07:52;1.70;69.50
71837;DHT22;59686;51.716;7.016;2022-12-18T14:10:22;1.70;69.60
71837;DHT22;59686;51.716;7.016;2022-12-18T14:12:49;1.70;69.70
71837;DHT22;59686;51.716;7.016;2022-12-18T14:20:35;1.70;69.80
71837;DHT22;59686;51.716;7.016;2022-12-18T14:23:02;1.70;69.80
71837;DHT22;59686;51.716;7.016;2022-12-18T14:25:30;1.70;69.90
71837;DHT22;59686;51.716;7.016;2022-12-18T14:28:04;1.70;69.90
71837;DHT22;59686;51.716;7.016;2022-12-18T14:30:42;1.80;70.00
71837;DHT22;59686;51.716;7.016;2022-12-18T14:33:13;1.80;70.00
71837;DHT22;59686;51.716;7.016;2022-12-18T14:36:00;1.80;70.10
71837;DHT22;59686;51.716;7.016;2022-12-18T14:38:37;1.70;70.00
71837;DHT22;59686;51.716;7.016;2022-12-18T14:41:12;1.70;70.00
71837;DHT22;59686;51.716;7.016;2022-12-18T14:43:39;1.80;70.10
71837;DHT22;59686;51.716;7.016;2022-12-18T14:46:44;1.90;70.20
71837;DHT22;59686;51.716;7.016;2022-12-18T14:51:57;1.80;70.10
71837;DHT22;59686;51.716;7.016;2022-12-18T14:54:25;1.80;70.00
71837;DHT22;59686;51.716;7.016;2022-12-18T14:59:45;1.80;70.10
71837;DHT22;59686;51.716;7.016;2022-12-18T15:02:19;1.80;70.40
71837;DHT22;59686;51.716;7.016;2022-12-18T15:04:47;1.80;70.20
71837;DHT22;59686;51.716;7.016;2022-12-18T15:07:18;1.80;70.10
71837;DHT22;59686;51.716;7.016;2022-12-18T15:10:11;1.80;70.10
71837;DHT22;59686;51.716;7.016;2022-12-18T15:12:43;1.80;70.20
71837;DHT22;59686;51.716;7.016;2022-12-18T15:18:16;1.80;70.10
71837;DHT22;59686;51.716;7.016;2022-12-18T15:20:47;1.90;70.20
71837;DHT22;59686;51.716;7.016;2022-12-18T15:23:27;1.80;70.20
71837;DHT22;59686;51.716;7.016;2022-12-18T15:26:00;1.80;70.30
71837;DHT22;59686;51.716;7.016;2022-12-18T15:28:36;1.90;70.30
71837;DHT22;59686;51.716;7.016;2022-12-18T15:31:03;1.90;70.40
71837;DHT22;59686;51.716;7.016;2022-12-18T15:33:38;1.90;70.40
71837;DHT22;59686;51.716;7.016;2022-12-18T15:36:15;1.90;70.40
71837;DHT22;59686;51.716;7.016;2022-12-18T15:38:46;1.90;70.30
71837;DHT22;59686;51.716;7.016;2022-12-18T15:41:17;2.00;70.40
71837;DHT22;59686;51.716;7.016;2022-12-18T15:43:43;1.90;70.40
71837;DHT22;59686;51.716;7.016;2022-12-18T15:46:26;1.90;70.40
71837;DHT22;59686;51.716;7.016;2022-12-18T15:48:57;1.90;70.40
71837;DHT22;59686;51.716;7.016;2022-12-18T15:51:26;1.90;70.50
71837;DHT22;59686;51.716;7.016;2022-12-18T15:53:56;1.90;70.50
71837;DHT22;59686;51.716;7.016;2022-12-18T15:56:24;1.90;70.50
71837;DHT22;59686;51.716;7.016;2022-12-18T15:59:16;1.90;70.60
71837;DHT22;59686;51.716;7.016;2022-12-18T16:01:48;1.90;70.60
71837;DHT22;59686;51.716;7.016;2022-12-18T16:04:17;1.90;70.60
71837;DHT22;59686;51.716;7.016;2022-12-18T16:06:47;1.90;70.50
71837;DHT22;59686;51.716;7.016;2022-12-18T16:09:12;1.90;70.60
71837;DHT22;59686;51.716;7.016;2022-12-18T16:11:41;2.00;70.60
71837;DHT22;59686;51.716;7.016;2022-12-18T16:14:25;2.00;70.60
71837;DHT22;59686;51.716;7.016;2022-12-18T16:16:59;2.00;70.60
71837;DHT22;59686;51.716;7.016;2022-12-18T16:19:31;2.00;70.60
71837;DHT22;59686;51.716;7.016;2022-12-18T16:21:57;2.00;70.70
71837;DHT22;59686;51.716;7.016;2022-12-18T16:24:26;2.10;70.70
71837;DHT22;59686;51.716;7.016;2022-12-18T16:26:53;2.00;70.60
71837;DHT22;59686;51.716;7.016;2022-12-18T16:29:24;2.00;70.70
71837;DHT22;59686;51.716;7.016;2022-12-18T16:31:53;1.90;70.70
71837;DHT22;59686;51.716;7.016;2022-12-18T16:34:28;2.00;70.80
71837;DHT22;59686;51.716;7.016;2022-12-18T16:37:00;2.00;70.80
71837;DHT22;59686;51.716;7.016;2022-12-18T16:39:26;2.00;70.80
71837;DHT22;59686;51.716;7.016;2022-12-18T16:41:52;2.00;70.80
71837;DHT22;59686;51.716;7.016;2022-12-18T16:44:18;2.00;70.70
71837;DHT22;59686;51.716;7.016;2022-12-18T16:46:47;2.00;70.70
71837;DHT22;59686;51.716;7.016;2022-12-18T16:49:18;2.00;70.70
71837;DHT22;59686;51.716;7.016;2022-12-18T16:51:47;2.00;70.80
71837;DHT22;59686;51.716;7.016;2022-12-18T16:54:13;2.10;70.80
71837;DHT22;59686;51.716;7.016;2022-12-18T16:56:38;1.90;70.70
71837;DHT22;59686;51.716;7.016;2022-12-18T16:59:04;2.00;70.80
71837;DHT22;59686;51.716;7.016;2022-12-18T17:01:31;2.00;70.80
71837;DHT22;59686;51.716;7.016;2022-12-18T17:04:03;2.10;70.80
71837;DHT22;59686;51.716;7.016;2022-12-18T17:06:31;2.10;70.80
71837;DHT22;59686;51.716;7.016;2022-12-18T17:09:02;2.00;70.80
71837;DHT22;59686;51.716;7.016;2022-12-18T17:11:31;2.00;70.80
71837;DHT22;59686;51.716;7.016;2022-12-18T17:13:57;2.00;70.80
71837;DHT22;59686;51.716;7.016;2022-12-18T17:16:31;2.10;70.80
71837;DHT22;59686;51.716;7.016;2022-12-18T17:18:56;2.10;70.80
71837;DHT22;59686;51.716;7.016;2022-12-18T17:21:22;2.00;70.80
71837;DHT22;59686;51.716;7.016;2022-12-18T17:23:48;2.10;70.80
71837;DHT22;59686;51.716;7.016;2022-12-18T17:26:13;2.10;70.90
71837;DHT22;59686;51.716;7.016;2022-12-18T17:28:40;2.10;70.90
71837;DHT22;59686;51.716;7.016;2022-12-18T17:31:19;2.10;70.80
71837;DHT22;59686;51.716;7.016;2022-12-18T17:33:45;2.10;70.90
71837;DHT22;59686;51.716;7.016;2022-12-18T17:36:12;2.10;70.80
71837;DHT22;59686;51.716;7.016;2022-12-18T17:38:38;2.10;70.80
71837;DHT22;59686;51.716;7.016;2022-12-18T17:41:08;2.20;70.90
71837;DHT22;59686;51.716;7.016;2022-12-18T17:43:34;2.10;70.80
71837;DHT22;59686;51.716;7.016;2022-12-18T17:46:04;2.10;70.80
71837;DHT22;59686;51.716;7.016;2022-12-18T17:48:31;2.10;70.80
71837;DHT22;59686;51.716;7.016;2022-12-18T17:51:05;2.10;70.80
71837;DHT22;59686;51.716;7.016;2022-12-18T17:53:31;2.10;70.80
71837;DHT22;59686;51.716;7.016;2022-12-18T17:55:58;2.20;71.00
71837;DHT22;59686;51.716;7.016;2022-12-18T17:58:26;2.30;70.90
71837;DHT22;59686;51.716;7.016;2022-12-18T18:00:52;2.10;70.80
71837;DHT22;59686;51.716;7.016;2022-12-18T18:03:18;2.10;70.80
71837;DHT22;59686;51.716;7.016;2022-12-18T18:05:44;2.10;70.80
71837;DHT22;59686;51.716;7.016;2022-12-18T18:08:10;2.10;70.80
71837;DHT22;59686;51.716;7.016;2022-12-18T18:10:37;2.10;70.80
71837;DHT22;59686;51.716;7.016;2022-12-18T18:16:03;2.10;70.80
71837;DHT22;59686;51.716;7.016;2022-12-18T18:18:29;2.20;70.80
71837;DHT22;59686;51.716;7.016;2022-12-18T18:20:54;2.20;70.80
71837;DHT22;59686;51.716;7.016;2022-12-18T18:23:20;2.20;70.80
71837;DHT22;59686;51.716;7.016;2022-12-18T18:25:46;2.20;70.80
71837;DHT22;59686;51.716;7.016;2022-12-18T18:28:12;2.20;70.80
71837;DHT22;59686;51.716;7.016;2022-12-18T18:30:38;2.20;70.80
71837;DHT22;59686;51.716;7.016;2022-12-18T18:33:04;2.20;70.70